Airfield :
LOGIN :

Register | Disclaimer

   EN    FR    IT 

 










Legend :    VFR   Marginal VFR   IFR   Intensive IFR   Very Intensive IFR
Visi :
Ceiling :
>= 8 km
>= 3000ft
5 to 8 km
1000 to 3000 ft
1500m to 5 km
500 to 1000 ft
800 to 1500m
200 to 500 ft
< 800m
< 200 ft
Symbols :   Thunderstorms  Fog  Heavy snow  Heavy precipitations  Wind > 20 kt
SIGMETs :     Misc.  Thunderstorms  Icing  Turbulence  Mountain Waves  Volcanic Ashes






- Airport Elevation : 81 ft
- IATA code : SCS


EGPM - Scatsta

CURRENT METAR :
  • 261320Z AUTO 22019KT 7000 -RA BKN007/// OVC019/// 07/06 Q0991

EXPIRED METARs :
  • 261250Z AUTO 21018KT 6000 -RA FEW004/// BKN010/// OVC026/// 07/06 Q0991
  • 261220Z AUTO 21018KT 9999 -RA SCT004/// BKN014/// OVC024/// 08/06 Q0991
  • 261150Z AUTO 21018KT 9999 -RA FEW005/// BKN011/// 08/06 Q0991
  • 261120Z AUTO 20019KT 7000 -RA FEW006/// BKN014/// BKN026/// 08/06 Q0992
  • 261050Z AUTO 20020KT 9999 -RA FEW008/// SCT016/// BKN042/// 08/06 Q0991

TAF TAF EGPM
Valid from the 26 at 09:00 until the 26 at 18:00 UTC


260803Z 2609/2618 20019KT 9999 BKN020
TEMPO 2609/2616 6000 RA BKN010
TEMPO 2609/2612 20025G38KT
BECMG 2612/2615 27015KT
TEMPO 2613/2618 26018G28KT



MET'MAP, your aeronautical weather chart ! - Copyright ORBIFLY December 2007 - Disclaimer

ORBIFLY MET'MAP TEAM :

Programming & Development : Alexandra Zaïnal
Concept & original design : Baudouin d'Aumeries
Assistance for programming : Marc-Olivier Méhu
Technical & hardware support : Manuel Goepfert

Contact : metmap@orbifly.com




SOURCES & CREDITS :

   NOAA